createdAt,value
2022-08-25T00:01:42.181Z,4.07
2022-08-25T00:04:11.701Z,4.20
2022-08-25T00:06:41.808Z,4.30
2022-08-25T00:09:09.726Z,4.07
2022-08-25T00:11:38.753Z,4.20
2022-08-25T00:14:10.240Z,4.27
2022-08-25T00:16:36.760Z,4.60
2022-08-25T00:19:08.769Z,4.00
2022-08-25T00:21:35.496Z,4.37
2022-08-25T00:24:04.772Z,4.40
2022-08-25T00:26:31.524Z,4.10
2022-08-25T00:29:01.251Z,3.97
2022-08-25T00:31:38.213Z,4.30
2022-08-25T00:34:12.719Z,4.50
2022-08-25T00:36:39.324Z,4.53
2022-08-25T00:39:08.718Z,4.30
2022-08-25T00:41:36.354Z,4.50
2022-08-25T00:44:06.497Z,4.60
2022-08-25T00:46:43.832Z,4.67
2022-08-25T00:49:30.582Z,4.20
2022-08-25T00:52:04.869Z,4.73
2022-08-25T00:55:11.437Z,4.20
2022-08-25T00:57:42.769Z,4.77
2022-08-25T01:00:14.342Z,4.57
2022-08-25T01:02:41.464Z,4.63
2022-08-25T01:05:09.036Z,4.77
2022-08-25T01:07:36.776Z,4.53
2022-08-25T01:10:04.744Z,4.43
2022-08-25T01:12:31.159Z,5.03
2022-08-25T01:14:58.435Z,5.00
2022-08-25T01:17:28.072Z,4.23
2022-08-25T01:19:55.817Z,4.40
2022-08-25T01:22:22.459Z,4.17
2022-08-25T01:25:07.710Z,4.10
2022-08-25T01:27:34.130Z,4.23
2022-08-25T01:30:00.549Z,4.03
2022-08-25T01:32:26.974Z,4.00
2022-08-25T01:34:53.437Z,4.10
2022-08-25T01:37:20.597Z,4.10
2022-08-25T01:39:47.341Z,3.60
2022-08-25T01:42:34.004Z,4.00
2022-08-25T01:45:00.445Z,4.07
2022-08-25T01:47:26.913Z,3.60
2022-08-25T01:49:53.331Z,3.27
2022-08-25T01:52:27.747Z,3.60
2022-08-25T01:54:54.207Z,3.50
2022-08-25T01:57:22.035Z,3.67
2022-08-25T01:59:48.447Z,3.33
2022-08-25T02:02:15.010Z,3.90
2022-08-25T02:04:44.816Z,3.73
2022-08-25T02:07:11.266Z,3.83
2022-08-25T02:09:38.417Z,3.40
2022-08-25T02:12:05.501Z,3.50
2022-08-25T02:14:32.189Z,3.50
2022-08-25T02:16:58.619Z,3.40
2022-08-25T02:19:26.252Z,3.80
2022-08-25T02:21:53.353Z,3.40
2022-08-25T02:24:20.105Z,4.00
2022-08-25T02:26:46.624Z,3.50
2022-08-25T02:29:13.532Z,3.60
2022-08-25T02:31:40.481Z,3.23
2022-08-25T02:34:08.702Z,3.53
2022-08-25T02:36:35.580Z,3.47
2022-08-25T02:39:02.182Z,3.47
2022-08-25T02:41:31.812Z,3.70
2022-08-25T02:43:59.450Z,3.93
2022-08-25T02:46:26.104Z,4.23
2022-08-25T02:48:53.444Z,3.50
2022-08-25T02:51:22.530Z,4.17
2022-08-25T02:53:49.905Z,3.27
2022-08-25T02:56:18.575Z,3.93
2022-08-25T02:58:46.001Z,3.40
2022-08-25T03:01:13.887Z,3.17
2022-08-25T03:03:43.504Z,3.57
2022-08-25T03:06:12.510Z,3.97
2022-08-25T03:08:39.329Z,3.43
2022-08-25T03:11:06.156Z,3.30
2022-08-25T03:13:32.682Z,3.30
2022-08-25T03:16:00.383Z,4.00
2022-08-25T03:18:27.505Z,3.80
2022-08-25T03:20:54.873Z,3.57
2022-08-25T03:23:21.427Z,4.27
2022-08-25T03:26:06.339Z,3.60
2022-08-25T03:28:33.183Z,3.50
2022-08-25T03:31:01.187Z,3.53
2022-08-25T03:33:30.420Z,3.40
2022-08-25T03:35:57.177Z,3.77
2022-08-25T03:38:25.278Z,4.03
2022-08-25T03:40:52.869Z,3.83
2022-08-25T03:43:19.961Z,3.57
2022-08-25T03:45:47.756Z,3.50
2022-08-25T03:48:15.067Z,3.30
2022-08-25T03:50:50.377Z,3.47
2022-08-25T03:53:18.309Z,3.47
2022-08-25T03:55:44.724Z,3.87
2022-08-25T03:58:12.336Z,4.00
2022-08-25T04:00:39.432Z,3.80
2022-08-25T04:03:06.297Z,3.70
2022-08-25T04:05:32.963Z,3.47
2022-08-25T04:08:01.803Z,4.17
2022-08-25T04:10:29.232Z,3.50
2022-08-25T04:12:56.124Z,3.63
2022-08-25T04:15:22.888Z,3.47
2022-08-25T04:17:49.543Z,3.80
2022-08-25T04:20:18.926Z,3.63
2022-08-25T04:22:45.682Z,3.07
2022-08-25T04:25:12.766Z,3.57
2022-08-25T04:27:39.206Z,3.40
2022-08-25T04:30:06.674Z,3.30
2022-08-25T04:32:33.331Z,3.27
2022-08-25T04:34:59.953Z,3.60
2022-08-25T04:37:26.514Z,4.00
2022-08-25T04:39:52.997Z,3.60
2022-08-25T04:42:19.580Z,4.00
2022-08-25T04:44:45.984Z,3.37
2022-08-25T04:47:12.400Z,3.47
2022-08-25T04:49:38.795Z,3.17
2022-08-25T04:52:05.455Z,3.90
2022-08-25T04:54:40.307Z,3.30
2022-08-25T04:57:06.813Z,4.30
2022-08-25T04:59:33.691Z,3.77
2022-08-25T05:02:05.201Z,4.03
2022-08-25T05:04:33.312Z,3.17
2022-08-25T05:07:00.265Z,3.03
2022-08-25T05:09:27.786Z,4.07
2022-08-25T05:11:54.891Z,3.63
2022-08-25T05:14:26.670Z,3.50
2022-08-25T05:16:54.308Z,3.77
2022-08-25T05:19:20.740Z,4.20
2022-08-25T05:21:47.147Z,3.77
2022-08-25T05:24:13.571Z,3.60
2022-08-25T05:26:40.025Z,3.37
2022-08-25T05:29:06.936Z,3.43
2022-08-25T05:31:36.368Z,3.70
2022-08-25T05:34:07.391Z,3.60
2022-08-25T05:36:34.203Z,4.20
2022-08-25T05:39:01.077Z,3.97
2022-08-25T05:41:30.625Z,3.50
2022-08-25T05:43:57.322Z,3.23
2022-08-25T05:46:24.746Z,3.27
2022-08-25T05:48:51.458Z,3.80
2022-08-25T05:51:18.829Z,4.13
2022-08-25T05:53:47.222Z,4.27
2022-08-25T05:56:14.631Z,3.90
2022-08-25T05:58:42.607Z,3.57
2022-08-25T06:01:30.066Z,4.23
2022-08-25T06:03:56.556Z,3.40
2022-08-25T06:06:24.395Z,3.60
2022-08-25T06:08:51.615Z,3.33
2022-08-25T06:11:18.548Z,3.77
2022-08-25T06:13:45.571Z,3.70
2022-08-25T06:16:12.310Z,3.63
2022-08-25T06:18:38.763Z,3.60
2022-08-25T06:21:12.815Z,3.33
2022-08-25T06:23:40.180Z,3.53
2022-08-25T06:26:09.735Z,3.00
2022-08-25T06:28:39.687Z,3.83
2022-08-25T06:31:06.576Z,3.80
2022-08-25T06:33:33.168Z,3.60
2022-08-25T06:35:59.878Z,3.33
2022-08-25T06:38:26.993Z,3.20
2022-08-25T06:40:53.880Z,3.40
2022-08-25T06:43:21.798Z,3.77
2022-08-25T06:45:48.525Z,3.60
2022-08-25T06:48:15.116Z,3.60
2022-08-25T06:50:42.148Z,3.70
2022-08-25T06:53:09.419Z,3.77
2022-08-25T06:55:36.500Z,3.50
2022-08-25T06:58:04.930Z,3.50
2022-08-25T07:00:32.637Z,3.53
2022-08-25T07:03:01.150Z,3.57
2022-08-25T07:05:40.864Z,3.40
2022-08-25T07:08:11.686Z,4.10
2022-08-25T07:10:38.251Z,3.80
2022-08-25T07:13:04.691Z,3.43
2022-08-25T07:15:31.098Z,3.50
2022-08-25T07:17:57.719Z,3.30
2022-08-25T07:22:52.290Z,3.63
2022-08-25T07:25:18.883Z,3.50
2022-08-25T07:27:45.994Z,3.50
2022-08-25T07:30:12.532Z,3.53
2022-08-25T07:32:42.246Z,3.27
2022-08-25T07:35:18.922Z,3.63
2022-08-25T07:37:52.503Z,3.07
2022-08-25T07:40:23.837Z,3.77
2022-08-25T07:42:52.359Z,3.60
2022-08-25T07:45:20.986Z,3.50
2022-08-25T07:47:52.220Z,3.10
2022-08-25T07:50:19.271Z,3.13
2022-08-25T07:52:54.825Z,2.70
2022-08-25T07:55:22.512Z,3.40
2022-08-25T07:57:50.964Z,3.00
2022-08-25T08:00:21.489Z,3.30
2022-08-25T08:02:48.231Z,2.70
2022-08-25T08:05:15.597Z,2.90
2022-08-25T08:07:43.720Z,2.60
2022-08-25T08:13:00.447Z,2.83
2022-08-25T08:15:28.388Z,2.83
2022-08-25T08:17:56.748Z,2.70
2022-08-25T08:20:24.774Z,2.73
2022-08-25T08:22:52.037Z,3.57
2022-08-25T08:25:18.834Z,3.40
2022-08-25T08:27:48.804Z,2.97
2022-08-25T08:30:15.422Z,3.07
2022-08-25T08:33:08.194Z,2.90
2022-08-25T08:35:28.595Z,2.93
2022-08-25T08:37:55.017Z,2.90
2022-08-25T08:40:21.992Z,2.73
2022-08-25T08:43:02.400Z,2.60
2022-08-25T08:45:40.100Z,2.97
2022-08-25T08:48:49.759Z,3.00
2022-08-25T08:51:24.669Z,2.80
2022-08-25T08:53:57.252Z,2.77
2022-08-25T08:56:30.808Z,2.70
2022-08-25T08:59:09.515Z,3.27
2022-08-25T09:02:00.401Z,2.80
2022-08-25T09:04:43.735Z,2.80
2022-08-25T09:07:16.235Z,3.10
2022-08-25T09:09:43.590Z,3.10
2022-08-25T09:12:17.161Z,2.73
2022-08-25T09:15:13.099Z,2.63
2022-08-25T09:17:59.425Z,2.70
2022-08-25T09:20:34.907Z,2.57
2022-08-25T09:23:15.483Z,3.03
2022-08-25T09:26:14.709Z,2.70
2022-08-25T09:28:51.151Z,2.80
2022-08-25T09:31:31.486Z,2.63
2022-08-25T09:34:01.644Z,3.07
2022-08-25T09:36:30.130Z,2.93
2022-08-25T09:38:57.870Z,2.90
2022-08-25T09:41:46.619Z,2.67
2022-08-25T09:44:33.972Z,2.90
2022-08-25T09:47:02.293Z,2.70
2022-08-25T09:49:37.496Z,3.00
2022-08-25T09:52:27.178Z,2.70
2022-08-25T09:54:55.614Z,2.93
2022-08-25T09:57:46.458Z,2.20
2022-08-25T10:00:14.901Z,2.67
2022-08-25T10:02:44.691Z,2.60
2022-08-25T10:05:24.374Z,2.63
2022-08-25T10:08:24.871Z,2.78
2022-08-25T10:10:57.614Z,3.67
2022-08-25T10:13:35.832Z,3.10
2022-08-25T10:16:20.011Z,2.45
2022-08-25T10:19:05.163Z,2.58
2022-08-25T10:21:31.699Z,2.78
2022-08-25T10:24:01.484Z,2.80
2022-08-25T10:26:39.377Z,3.05
2022-08-25T10:29:23.227Z,2.88
2022-08-25T10:32:13.559Z,2.58
2022-08-25T10:34:51.858Z,2.40
2022-08-25T10:37:47.987Z,2.53
2022-08-25T10:40:24.847Z,2.53
2022-08-25T10:43:38.497Z,2.47
2022-08-25T10:46:27.855Z,2.50
2022-08-25T10:49:10.837Z,2.70
2022-08-25T10:52:05.262Z,3.22
2022-08-25T10:54:40.653Z,2.65
2022-08-25T10:57:31.389Z,2.78
2022-08-25T11:00:28.779Z,2.85
2022-08-25T11:03:35.307Z,3.00
2022-08-25T11:06:10.519Z,2.50
2022-08-25T11:08:47.608Z,2.72
2022-08-25T11:11:21.616Z,2.85
2022-08-25T11:13:54.031Z,2.60
2022-08-25T11:16:25.689Z,2.75
2022-08-25T11:19:05.555Z,2.28
2022-08-25T11:21:49.898Z,3.25
2022-08-25T11:24:28.771Z,2.42
2022-08-25T11:26:57.019Z,2.63
2022-08-25T11:29:32.732Z,2.55
2022-08-25T11:32:01.642Z,2.58
2022-08-25T11:34:32.633Z,3.08
2022-08-25T11:37:11.241Z,2.78
2022-08-25T11:39:56.256Z,2.08
2022-08-25T11:42:44.084Z,2.70
2022-08-25T11:45:54.498Z,2.55
2022-08-25T11:48:41.409Z,3.05
2022-08-25T11:51:11.296Z,2.25
2022-08-25T11:53:42.225Z,2.38
2022-08-25T11:56:32.643Z,2.08
2022-08-25T11:58:59.221Z,2.40
2022-08-25T12:01:40.721Z,2.10
2022-08-25T12:04:33.746Z,2.40
2022-08-25T12:07:06.088Z,2.50
2022-08-25T12:09:54.543Z,2.42
2022-08-25T12:12:56.530Z,2.50
2022-08-25T12:15:32.228Z,2.40
2022-08-25T12:18:16.284Z,2.63
2022-08-25T12:20:54.402Z,2.35
2022-08-25T12:23:37.780Z,2.53
2022-08-25T12:26:21.655Z,2.58
2022-08-25T12:28:57.106Z,2.47
2022-08-25T12:31:52.764Z,2.35
2022-08-25T12:34:41.299Z,2.58
2022-08-25T12:37:16.947Z,2.47
2022-08-25T12:39:45.797Z,2.00
2022-08-25T12:42:35.920Z,2.15
2022-08-25T12:45:10.779Z,2.42
2022-08-25T12:47:38.388Z,2.35
2022-08-25T12:50:28.424Z,2.05
2022-08-25T12:52:59.482Z,2.42
2022-08-25T12:55:27.046Z,2.38
2022-08-25T12:57:58.894Z,3.03
2022-08-25T13:00:30.026Z,2.25
2022-08-25T13:03:14.816Z,2.25
2022-08-25T13:05:47.973Z,2.40
2022-08-25T13:08:48.242Z,2.53
2022-08-25T13:11:14.638Z,1.80
2022-08-25T13:13:56.382Z,2.35
2022-08-25T13:16:29.731Z,2.70
2022-08-25T13:18:59.422Z,2.30
2022-08-25T13:21:43.341Z,2.67
2022-08-25T13:24:24.309Z,2.30
2022-08-25T13:26:57.682Z,2.38
2022-08-25T13:29:35.835Z,2.78
2022-08-25T13:32:13.036Z,2.50
2022-08-25T13:34:43.301Z,2.25
2022-08-25T13:37:29.746Z,2.50
2022-08-25T13:40:26.818Z,2.30
2022-08-25T13:42:58.241Z,2.20
2022-08-25T13:45:29.988Z,2.58
2022-08-25T13:47:59.217Z,2.47
2022-08-25T13:50:26.380Z,2.63
2022-08-25T13:52:55.092Z,2.88
2022-08-25T13:55:28.670Z,2.10
2022-08-25T13:57:58.181Z,2.77
2022-08-25T14:00:32.546Z,3.23
2022-08-25T14:03:00.649Z,2.33
2022-08-25T14:06:04.362Z,2.77
2022-08-25T14:08:34.643Z,2.77
2022-08-25T14:11:30.638Z,2.60
2022-08-25T14:14:09.309Z,2.60
2022-08-25T14:16:50.167Z,2.93
2022-08-25T14:19:23.241Z,2.37
2022-08-25T14:21:50.509Z,2.47
2022-08-25T14:24:23.718Z,2.50
2022-08-25T14:26:54.401Z,2.80
2022-08-25T14:29:22.149Z,2.80
2022-08-25T14:31:49.926Z,2.80
2022-08-25T14:34:22.953Z,2.53
2022-08-25T14:36:50.878Z,2.60
2022-08-25T14:39:18.148Z,2.63
2022-08-25T14:41:52.708Z,2.83
2022-08-25T14:44:21.035Z,2.83
2022-08-25T14:46:54.141Z,2.83
2022-08-25T14:49:29.718Z,2.47
2022-08-25T14:52:00.139Z,2.93
2022-08-25T14:54:27.330Z,3.07
2022-08-25T14:56:53.820Z,2.77
2022-08-25T14:59:20.501Z,3.23
2022-08-25T15:01:47.142Z,2.90
2022-08-25T15:04:22.293Z,2.70
2022-08-25T15:06:54.412Z,2.43
2022-08-25T15:09:21.539Z,2.77
2022-08-25T15:11:54.668Z,2.40
2022-08-25T15:14:28.588Z,2.53
2022-08-25T15:16:59.727Z,2.80
2022-08-25T15:19:27.565Z,2.20
2022-08-25T15:21:54.469Z,2.10
2022-08-25T15:24:25.752Z,2.80
2022-08-25T15:26:58.475Z,2.80
2022-08-25T15:29:29.234Z,2.93
2022-08-25T15:31:56.677Z,2.93
2022-08-25T15:34:23.178Z,3.23
2022-08-25T15:36:50.890Z,2.40
2022-08-25T15:39:18.986Z,2.70
2022-08-25T15:41:57.374Z,2.80
2022-08-25T15:44:29.042Z,3.73
2022-08-25T15:46:56.344Z,3.10
2022-08-25T15:49:24.046Z,3.50
2022-08-25T15:51:52.929Z,3.37
2022-08-25T15:54:22.203Z,3.33
2022-08-25T15:56:48.775Z,2.80
2022-08-25T15:59:15.942Z,3.03
2022-08-25T16:01:44.382Z,2.80
2022-08-25T16:04:14.359Z,2.63
2022-08-25T16:06:41.040Z,3.03
2022-08-25T16:09:08.219Z,2.67
2022-08-25T16:11:35.264Z,2.47
2022-08-25T16:14:05.668Z,2.20
2022-08-25T16:16:32.698Z,2.73
2022-08-25T16:19:00.022Z,2.40
2022-08-25T16:21:30.469Z,2.20
2022-08-25T16:24:05.492Z,2.63
2022-08-25T16:26:36.376Z,2.43
2022-08-25T16:29:06.396Z,2.20
2022-08-25T16:31:33.201Z,2.60
2022-08-25T16:34:01.408Z,2.60
2022-08-25T16:36:28.174Z,3.10
2022-08-25T16:38:56.405Z,2.30
2022-08-25T16:41:26.179Z,2.90
2022-08-25T16:43:52.758Z,2.77
2022-08-25T16:46:21.277Z,2.60
2022-08-25T16:48:48.505Z,2.40
2022-08-25T16:51:19.273Z,2.57
2022-08-25T16:54:07.573Z,2.67
2022-08-25T16:56:36.085Z,2.90
2022-08-25T16:59:04.525Z,3.03
2022-08-25T17:01:35.321Z,2.70
2022-08-25T17:04:03.061Z,3.40
2022-08-25T17:06:33.127Z,3.20
2022-08-25T17:08:59.542Z,2.70
2022-08-25T17:11:31.869Z,3.07
2022-08-25T17:14:00.698Z,3.17
2022-08-25T17:16:31.392Z,3.40
2022-08-25T17:19:06.973Z,2.90
2022-08-25T17:21:38.305Z,3.43
2022-08-25T17:24:05.305Z,3.07
2022-08-25T17:26:31.901Z,3.97
2022-08-25T17:29:00.869Z,3.37
2022-08-25T17:31:28.746Z,3.57
2022-08-25T17:33:56.808Z,2.67
2022-08-25T17:36:27.197Z,3.93
2022-08-25T17:38:54.421Z,2.73
2022-08-25T17:41:21.029Z,3.60
2022-08-25T17:43:47.680Z,2.80
2022-08-25T17:46:15.207Z,4.70
2022-08-25T17:48:43.758Z,3.10
2022-08-25T17:51:11.037Z,2.70
2022-08-25T17:53:38.646Z,3.00
2022-08-25T17:56:11.180Z,3.07
2022-08-25T17:58:37.904Z,3.00
2022-08-25T18:01:05.943Z,2.83
2022-08-25T18:03:33.158Z,2.93
2022-08-25T18:06:00.420Z,3.10
2022-08-25T18:08:35.088Z,3.67
2022-08-25T18:11:03.381Z,3.33
2022-08-25T18:13:31.231Z,4.20
2022-08-25T18:15:57.916Z,3.27
2022-08-25T18:18:24.440Z,4.47
2022-08-25T18:20:51.216Z,3.30
2022-08-25T18:23:19.764Z,4.13
2022-08-25T18:25:48.580Z,4.47
2022-08-25T18:28:15.427Z,3.80
2022-08-25T18:30:42.725Z,3.60
2022-08-25T18:33:09.779Z,4.07
2022-08-25T18:35:36.223Z,3.80
2022-08-25T18:38:23.739Z,4.33
2022-08-25T18:40:58.206Z,4.30
2022-08-25T18:43:24.867Z,4.53
2022-08-25T18:45:51.483Z,4.13
2022-08-25T18:48:21.451Z,4.53
2022-08-25T18:50:54.133Z,4.23
2022-08-25T18:53:30.464Z,4.40
2022-08-25T18:56:04.646Z,4.57
2022-08-25T18:58:31.395Z,4.43
2022-08-25T19:00:57.772Z,4.20
2022-08-25T19:03:24.202Z,4.87
2022-08-25T19:05:57.201Z,4.13
2022-08-25T19:08:24.898Z,4.97
2022-08-25T19:10:53.306Z,5.07
2022-08-25T19:13:22.764Z,5.53
2022-08-25T19:15:51.309Z,4.30
2022-08-25T19:18:18.382Z,5.03
2022-08-25T19:20:45.057Z,4.60
2022-08-25T19:23:12.823Z,5.13
2022-08-25T19:25:41.465Z,5.30
2022-08-25T19:28:11.862Z,5.23
2022-08-25T19:30:39.334Z,5.37
2022-08-25T19:33:42.180Z,5.27
2022-08-25T19:36:04.661Z,5.00
2022-08-25T19:38:34.182Z,5.17
2022-08-25T19:41:02.554Z,5.20
2022-08-25T19:43:35.570Z,5.20
2022-08-25T19:46:02.038Z,4.70
2022-08-25T19:48:29.314Z,5.50
2022-08-25T19:50:55.949Z,5.80
2022-08-25T19:53:22.957Z,5.73
2022-08-25T19:55:49.361Z,6.00
2022-08-25T19:58:15.948Z,6.40
2022-08-25T20:00:47.150Z,7.33
2022-08-25T20:03:17.367Z,7.90
2022-08-25T20:05:43.863Z,7.10
2022-08-25T20:08:10.268Z,7.23
2022-08-25T20:10:41.792Z,8.50
2022-08-25T20:13:09.022Z,7.80
2022-08-25T20:15:37.947Z,8.87
2022-08-25T20:18:05.683Z,8.80
2022-08-25T20:20:34.660Z,9.57
2022-08-25T20:23:21.268Z,9.53
2022-08-25T20:25:50.192Z,11.83
2022-08-25T20:28:18.678Z,10.80
2022-08-25T20:30:45.616Z,13.17
2022-08-25T20:33:12.388Z,16.90
2022-08-25T20:35:38.799Z,17.57
2022-08-25T20:38:05.389Z,18.47
2022-08-25T20:40:32.485Z,21.63
2022-08-25T20:43:03.278Z,23.53
2022-08-25T20:45:29.707Z,21.70
2022-08-25T20:47:56.159Z,22.93
2022-08-25T20:50:23.967Z,20.87
2022-08-25T20:52:51.482Z,23.67
2022-08-25T20:55:18.883Z,22.73
2022-08-25T20:57:45.887Z,23.53
2022-08-25T21:00:15.728Z,21.90
2022-08-25T21:02:42.380Z,20.40
2022-08-25T21:05:08.934Z,19.57
2022-08-25T21:07:36.068Z,17.20
2022-08-25T21:10:05.683Z,15.63
2022-08-25T21:12:32.171Z,17.10
2022-08-25T21:14:58.591Z,15.17
2022-08-25T21:17:25.018Z,15.73
2022-08-25T21:19:51.733Z,13.70
2022-08-25T21:22:18.443Z,15.10
2022-08-25T21:24:45.083Z,14.03
2022-08-25T21:27:11.505Z,13.37
2022-08-25T21:29:38.342Z,13.60
2022-08-25T21:32:11.457Z,14.77
2022-08-25T21:34:37.889Z,13.17
2022-08-25T21:37:05.305Z,12.60
2022-08-25T21:39:33.085Z,13.40
2022-08-25T21:42:00.545Z,13.20
2022-08-25T21:44:28.492Z,12.93
2022-08-25T21:46:55.216Z,11.90
2022-08-25T21:49:23.388Z,13.10
2022-08-25T21:52:00.396Z,12.37
2022-08-25T21:54:28.980Z,12.37
2022-08-25T21:57:03.199Z,13.20
2022-08-25T21:59:33.076Z,12.50
2022-08-25T22:02:11.202Z,12.00
2022-08-25T22:04:39.351Z,11.70
2022-08-25T22:07:07.827Z,11.73
2022-08-25T22:09:35.507Z,11.03
2022-08-25T22:12:03.074Z,11.23
2022-08-25T22:14:29.614Z,12.77
2022-08-25T22:16:56.126Z,10.77
2022-08-25T22:19:23.606Z,10.30
2022-08-25T22:21:52.590Z,9.60
2022-08-25T22:24:19.299Z,9.83
2022-08-25T22:26:47.721Z,9.47
2022-08-25T22:29:23.251Z,9.40
2022-08-25T22:31:52.933Z,9.17
2022-08-25T22:34:20.031Z,8.97
2022-08-25T22:36:59.702Z,9.13
2022-08-25T22:39:26.980Z,9.40
2022-08-25T22:41:53.848Z,7.53
2022-08-25T22:44:20.441Z,8.13
2022-08-25T22:46:46.857Z,8.80
2022-08-25T22:49:13.717Z,8.40
2022-08-25T22:51:40.825Z,7.47
2022-08-25T22:54:09.623Z,7.30
2022-08-25T22:56:37.378Z,8.63
2022-08-25T22:59:08.346Z,8.00
2022-08-25T23:01:35.895Z,7.73
2022-08-25T23:04:05.411Z,7.43
2022-08-25T23:06:34.362Z,7.80
2022-08-25T23:09:01.535Z,7.17
2022-08-25T23:11:29.000Z,7.00
2022-08-25T23:13:57.255Z,7.00
2022-08-25T23:16:24.105Z,7.00
2022-08-25T23:18:50.866Z,6.53
2022-08-25T23:21:41.023Z,6.70
2022-08-25T23:24:10.618Z,6.00
2022-08-25T23:26:37.827Z,6.73
2022-08-25T23:29:18.424Z,6.70
2022-08-25T23:31:47.580Z,5.30
2022-08-25T23:34:15.822Z,5.73
2022-08-25T23:36:43.841Z,5.73
2022-08-25T23:39:11.165Z,5.10
2022-08-25T23:41:38.089Z,5.47
2022-08-25T23:44:05.581Z,5.30
2022-08-25T23:46:34.987Z,4.80
2022-08-25T23:49:02.631Z,4.57
2022-08-25T23:51:37.224Z,4.40
2022-08-25T23:54:09.661Z,4.20
2022-08-25T23:56:44.914Z,3.60
2022-08-25T23:59:20.168Z,4.20
